Time;durP1;ratioP1;P1;durP2;ratioP2;P2;SDS_P1;SDS_P2;PMS_P1;PMS_P2;Temp;Humidity;BMP_temperature;BMP_pressure;BME280_temperature;BME280_humidity;BME280_pressure;Samples;Min_cycle;Max_cycle;Signal;HPM_P1;HPM_P2
2022/03/09 00:01:21;;;;;;;8.07;6.30;;;;;;;;;;5050667;28;20063;-80
2022/03/09 00:03:47;;;;;;;6.82;5.97;;;;;;;;;;5072470;28;20052;-81
2022/03/09 00:06:13;;;;;;;8.18;6.32;;;;;;;;;;5063227;28;20400;-80
2022/03/09 00:08:39;;;;;;;6.47;5.85;;;;;;;;;;5067561;28;20032;-81
2022/03/09 00:11:05;;;;;;;6.75;5.95;;;;;;;;;;5044932;28;20051;-81
2022/03/09 00:13:31;;;;;;;7.80;6.25;;;;;;;;;;5048846;28;20047;-81
2022/03/09 00:15:57;;;;;;;7.90;5.88;;;;;;;;;;5050831;28;20045;-80
2022/03/09 00:18:23;;;;;;;9.55;6.30;;;;;;;;;;5041148;28;20165;-81
2022/03/09 00:20:49;;;;;;;7.88;6.10;;;;;;;;;;5043031;28;20075;-81
2022/03/09 00:23:15;;;;;;;7.45;6.28;;;;;;;;;;5061219;28;20040;-81
2022/03/09 00:25:41;;;;;;;7.28;6.15;;;;;;;;;;5056049;28;20481;-80
2022/03/09 00:28:07;;;;;;;9.05;6.10;;;;;;;;;;5041101;28;20131;-80
2022/03/09 00:30:34;;;;;;;8.13;6.47;;;;;;;;;;5046406;28;20385;-80
2022/03/09 00:33:00;;;;;;;6.68;5.97;;;;;;;;;;5038280;28;20036;-80
2022/03/09 00:35:26;;;;;;;8.75;6.32;;;;;;;;;;5067220;28;20633;-80
2022/03/09 00:37:53;;;;;;;8.73;6.32;;;;;;;;;;5048863;28;20377;-80
2022/03/09 00:40:19;;;;;;;6.90;6.10;;;;;;;;;;5066110;28;20049;-81
2022/03/09 00:42:45;;;;;;;7.28;6.32;;;;;;;;;;5049536;28;20047;-81
2022/03/09 00:45:11;;;;;;;7.43;5.93;;;;;;;;;;5048941;28;20047;-81
2022/03/09 00:47:37;;;;;;;7.72;6.18;;;;;;;;;;5047691;28;20048;-81
2022/03/09 00:50:07;;;;;;;7.57;6.40;;;;;;;;;;5068631;28;20127;-80
2022/03/09 00:52:33;;;;;;;7.28;6.57;;;;;;;;;;5067164;28;20082;-81
2022/03/09 00:55:00;;;;;;;9.05;7.03;;;;;;;;;;5042767;28;20133;-80
2022/03/09 00:57:29;;;;;;;8.55;6.47;;;;;;;;;;5043666;28;20076;-80
2022/03/09 00:59:55;;;;;;;7.50;6.80;;;;;;;;;;5058420;28;20056;-80
2022/03/09 01:02:21;;;;;;;9.85;6.10;;;;;;;;;;5045956;28;20135;-80
2022/03/09 01:04:47;;;;;;;9.50;6.43;;;;;;;;;;5062290;28;20404;-80
2022/03/09 01:07:13;;;;;;;7.65;6.80;;;;;;;;;;5068903;28;20043;-80
2022/03/09 01:09:39;;;;;;;8.25;6.93;;;;;;;;;;5047199;28;20048;-80
2022/03/09 01:12:05;;;;;;;7.20;6.50;;;;;;;;;;5050529;28;20040;-80
2022/03/09 01:14:31;;;;;;;7.88;6.38;;;;;;;;;;5064870;28;20048;-80
2022/03/09 01:16:57;;;;;;;9.77;6.57;;;;;;;;;;5068741;28;20066;-81
2022/03/09 01:19:23;;;;;;;9.00;7.05;;;;;;;;;;5062380;28;20616;-80
2022/03/09 01:21:49;;;;;;;8.50;6.00;;;;;;;;;;5050005;28;20041;-80
2022/03/09 01:24:15;;;;;;;8.52;6.38;;;;;;;;;;5049239;28;20389;-80
2022/03/09 01:26:42;;;;;;;9.95;6.57;;;;;;;;;;5063764;28;20385;-80
2022/03/09 01:29:09;;;;;;;8.57;6.93;;;;;;;;;;5043114;28;20049;-79
2022/03/09 01:31:36;;;;;;;8.27;7.20;;;;;;;;;;5042845;28;20033;-80
2022/03/09 01:34:03;;;;;;;7.30;6.53;;;;;;;;;;5051022;28;20532;-80
2022/03/09 01:36:29;;;;;;;8.20;6.43;;;;;;;;;;5052561;28;20041;-80
2022/03/09 01:38:55;;;;;;;8.82;6.80;;;;;;;;;;5030276;28;20128;-80
2022/03/09 01:41:21;;;;;;;8.10;7.03;;;;;;;;;;5050454;28;20047;-80
2022/03/09 01:44:04;;;;;;;7.88;7.00;;;;;;;;;;5042751;28;20041;-80
2022/03/09 01:46:30;;;;;;;8.95;7.10;;;;;;;;;;5046911;28;20516;-80
2022/03/09 01:48:56;;;;;;;8.32;7.15;;;;;;;;;;5065123;28;20048;-80
2022/03/09 01:51:23;;;;;;;7.80;7.00;;;;;;;;;;5053286;28;20075;-80
2022/03/09 01:53:50;;;;;;;9.02;8.15;;;;;;;;;;5068651;28;20037;-80
2022/03/09 01:56:16;;;;;;;9.52;7.15;;;;;;;;;;5046198;28;20036;-80
2022/03/09 01:58:42;;;;;;;9.15;6.80;;;;;;;;;;5051418;28;20047;-80
2022/03/09 02:01:11;;;;;;;7.55;6.75;;;;;;;;;;5046332;28;20496;-80
2022/03/09 02:03:37;;;;;;;10.55;7.60;;;;;;;;;;5065384;28;20051;-80
2022/03/09 02:06:03;;;;;;;8.68;7.43;;;;;;;;;;5042684;28;20045;-80
2022/03/09 02:11:35;;;;;;;8.88;7.40;;;;;;;;;;5008558;28;20041;-80
2022/03/09 02:14:01;;;;;;;9.80;7.57;;;;;;;;;;4988921;28;20057;-80
2022/03/09 02:16:28;;;;;;;9.07;7.60;;;;;;;;;;5019167;28;20892;-81
2022/03/09 02:18:54;;;;;;;8.27;7.10;;;;;;;;;;5067903;28;20229;-81
2022/03/09 02:21:20;;;;;;;8.43;7.53;;;;;;;;;;5044861;28;20559;-81
2022/03/09 02:23:47;;;;;;;8.43;7.47;;;;;;;;;;5051704;28;20040;-80
2022/03/09 02:26:13;;;;;;;8.52;7.45;;;;;;;;;;5065452;28;20051;-80
2022/03/09 02:28:40;;;;;;;10.05;7.60;;;;;;;;;;5067686;28;20045;-80
2022/03/09 02:31:06;;;;;;;8.77;6.95;;;;;;;;;;5069907;28;20048;-80
2022/03/09 02:33:33;;;;;;;8.82;7.53;;;;;;;;;;5061042;28;20575;-81
2022/03/09 02:35:59;;;;;;;9.38;7.15;;;;;;;;;;5048457;28;20064;-80
2022/03/09 02:38:25;;;;;;;8.35;7.30;;;;;;;;;;5051118;28;20060;-81
2022/03/09 02:40:51;;;;;;;8.48;7.25;;;;;;;;;;5049931;28;20041;-80
2022/03/09 02:43:17;;;;;;;9.68;7.57;;;;;;;;;;5067723;28;20519;-80
2022/03/09 02:45:43;;;;;;;8.75;7.78;;;;;;;;;;5063709;28;20040;-80
2022/03/09 02:48:09;;;;;;;8.68;7.75;;;;;;;;;;5042741;28;20392;-80
2022/03/09 02:50:35;;;;;;;8.75;7.70;;;;;;;;;;5050300;28;20130;-80
2022/03/09 02:53:01;;;;;;;8.90;7.55;;;;;;;;;;5049920;28;20495;-81
2022/03/09 02:55:27;;;;;;;9.02;7.65;;;;;;;;;;5047031;28;20056;-81
2022/03/09 02:57:53;;;;;;;8.77;7.60;;;;;;;;;;5067038;28;20131;-80
2022/03/09 03:00:21;;;;;;;8.93;7.15;;;;;;;;;;5061080;28;20053;-80
2022/03/09 03:02:47;;;;;;;9.38;7.88;;;;;;;;;;5041504;28;20183;-81
2022/03/09 03:05:13;;;;;;;8.82;7.80;;;;;;;;;;5046058;28;20393;-81
2022/03/09 03:07:39;;;;;;;9.23;7.63;;;;;;;;;;5050018;28;20056;-81
2022/03/09 03:10:06;;;;;;;8.00;7.22;;;;;;;;;;5049979;28;20105;-80
2022/03/09 03:12:32;;;;;;;9.15;7.82;;;;;;;;;;5065425;28;20047;-81
2022/03/09 03:14:58;;;;;;;9.82;8.18;;;;;;;;;;5049058;28;20127;-80
2022/03/09 03:17:24;;;;;;;9.93;7.78;;;;;;;;;;5047345;28;20040;-81
2022/03/09 03:19:53;;;;;;;9.30;7.78;;;;;;;;;;5065543;28;20083;-81
2022/03/09 03:22:19;;;;;;;8.25;7.25;;;;;;;;;;5064131;28;20483;-81
2022/03/09 03:24:45;;;;;;;9.18;7.72;;;;;;;;;;5048756;28;20068;-81
2022/03/09 03:27:11;;;;;;;9.50;7.55;;;;;;;;;;5051229;28;20048;-80
2022/03/09 03:29:37;;;;;;;9.52;8.13;;;;;;;;;;5050377;28;20048;-81
2022/03/09 03:32:03;;;;;;;8.73;7.68;;;;;;;;;;5045709;28;20555;-81
2022/03/09 03:34:29;;;;;;;11.27;7.72;;;;;;;;;;5047381;28;20106;-80
2022/03/09 03:36:55;;;;;;;11.40;8.38;;;;;;;;;;5066042;28;20591;-80
2022/03/09 03:39:24;;;;;;;8.57;7.68;;;;;;;;;;5066442;28;20080;-80
2022/03/09 03:41:50;;;;;;;8.75;7.40;;;;;;;;;;5050843;28;20080;-81
2022/03/09 03:44:16;;;;;;;8.98;8.05;;;;;;;;;;5047545;28;20477;-80
2022/03/09 03:46:42;;;;;;;9.05;7.50;;;;;;;;;;5050378;28;20049;-80
2022/03/09 03:49:08;;;;;;;10.65;7.95;;;;;;;;;;5062892;28;20491;-80
2022/03/09 03:51:34;;;;;;;12.70;7.93;;;;;;;;;;5069420;28;20036;-80
2022/03/09 03:54:00;;;;;;;8.52;7.55;;;;;;;;;;5047247;28;20048;-80
2022/03/09 03:56:26;;;;;;;9.52;8.20;;;;;;;;;;5051830;28;20037;-80
2022/03/09 03:58:52;;;;;;;11.60;7.97;;;;;;;;;;5068428;28;20041;-80
2022/03/09 04:01:18;;;;;;;11.07;8.30;;;;;;;;;;5047766;28;20415;-80
2022/03/09 04:03:44;;;;;;;9.15;7.95;;;;;;;;;;5052474;28;20162;-80
2022/03/09 04:06:13;;;;;;;10.02;8.25;;;;;;;;;;5041996;28;20185;-80
2022/03/09 04:08:39;;;;;;;11.95;7.85;;;;;;;;;;5065417;28;20102;-80
2022/03/09 04:11:05;;;;;;;10.65;8.48;;;;;;;;;;5048950;28;20136;-80
2022/03/09 04:13:31;;;;;;;10.25;8.30;;;;;;;;;;5043825;28;20044;-80
2022/03/09 04:15:57;;;;;;;10.40;8.40;;;;;;;;;;5052296;28;20032;-80
2022/03/09 04:18:23;;;;;;;10.02;8.15;;;;;;;;;;5067638;28;20477;-80
2022/03/09 04:20:50;;;;;;;9.80;8.38;;;;;;;;;;5049055;28;20041;-80
2022/03/09 04:23:19;;;;;;;9.63;8.00;;;;;;;;;;5052379;28;20052;-80
2022/03/09 04:25:45;;;;;;;9.73;7.63;;;;;;;;;;5053517;28;20207;-80
2022/03/09 04:28:11;;;;;;;10.50;8.73;;;;;;;;;;5067117;28;20055;-80
2022/03/09 04:30:37;;;;;;;10.25;8.27;;;;;;;;;;5067564;28;20045;-80
2022/03/09 04:33:04;;;;;;;11.00;8.48;;;;;;;;;;5065715;28;20100;-80
2022/03/09 04:35:30;;;;;;;12.20;7.85;;;;;;;;;;5048541;28;20092;-80
2022/03/09 04:37:56;;;;;;;10.75;8.55;;;;;;;;;;5050968;28;20059;-80
2022/03/09 04:40:22;;;;;;;9.57;8.23;;;;;;;;;;5047688;28;20044;-80
2022/03/09 04:42:48;;;;;;;11.10;8.55;;;;;;;;;;5055623;28;20518;-80
2022/03/09 04:45:14;;;;;;;9.95;8.30;;;;;;;;;;5053342;28;20044;-80
2022/03/09 04:47:40;;;;;;;9.85;8.20;;;;;;;;;;5045725;28;20091;-80
2022/03/09 04:50:06;;;;;;;9.32;7.85;;;;;;;;;;5054585;28;20497;-79
2022/03/09 04:52:32;;;;;;;9.98;7.85;;;;;;;;;;5069223;28;20415;-80
2022/03/09 04:54:58;;;;;;;9.80;8.20;;;;;;;;;;5050003;28;20049;-80
2022/03/09 04:57:24;;;;;;;10.07;8.38;;;;;;;;;;5048063;28;20048;-80
2022/03/09 04:59:50;;;;;;;11.35;8.95;;;;;;;;;;5052510;28;20116;-80
2022/03/09 05:02:16;;;;;;;10.27;8.45;;;;;;;;;;5049304;28;20052;-80
2022/03/09 05:04:42;;;;;;;11.05;8.55;;;;;;;;;;5052747;28;20465;-80
2022/03/09 05:07:08;;;;;;;9.80;8.63;;;;;;;;;;5051654;28;20080;-80
2022/03/09 05:09:34;;;;;;;11.02;8.52;;;;;;;;;;5046801;28;20049;-80
2022/03/09 05:12:01;;;;;;;9.57;8.35;;;;;;;;;;5071546;28;20151;-80
2022/03/09 05:14:27;;;;;;;10.90;8.85;;;;;;;;;;5049630;28;20041;-81
2022/03/09 05:16:53;;;;;;;9.68;8.38;;;;;;;;;;5047666;28;20070;-80
2022/03/09 05:19:19;;;;;;;12.35;8.90;;;;;;;;;;5052339;28;20051;-80
2022/03/09 05:21:45;;;;;;;10.15;8.95;;;;;;;;;;5045994;28;20044;-80
2022/03/09 05:24:11;;;;;;;9.55;8.55;;;;;;;;;;5046584;28;20120;-80
2022/03/09 05:26:37;;;;;;;10.30;8.68;;;;;;;;;;5069054;28;20373;-80
2022/03/09 05:29:04;;;;;;;11.80;8.88;;;;;;;;;;5069732;28;20040;-80
2022/03/09 05:31:32;;;;;;;11.88;8.60;;;;;;;;;;5044353;28;20472;-80
2022/03/09 05:34:01;;;;;;;9.63;8.10;;;;;;;;;;5048288;28;20076;-80
2022/03/09 05:36:27;;;;;;;10.05;8.15;;;;;;;;;;5050386;28;20052;-79
2022/03/09 05:38:54;;;;;;;12.68;8.40;;;;;;;;;;5066591;28;20127;-80
2022/03/09 05:41:21;;;;;;;10.15;8.70;;;;;;;;;;5049876;28;20511;-80
2022/03/09 05:43:48;;;;;;;10.85;8.57;;;;;;;;;;5064985;28;20075;-80
2022/03/09 05:46:14;;;;;;;10.07;8.95;;;;;;;;;;5050980;28;20040;-80
2022/03/09 05:48:40;;;;;;;10.40;9.20;;;;;;;;;;5048692;28;20090;-80
2022/03/09 05:51:06;;;;;;;11.50;9.75;;;;;;;;;;5065943;28;20133;-80
2022/03/09 05:53:32;;;;;;;12.18;9.00;;;;;;;;;;5045959;28;20041;-80
2022/03/09 05:55:58;;;;;;;12.18;9.00;;;;;;;;;;5051972;28;20099;-80
2022/03/09 05:58:24;;;;;;;10.88;8.70;;;;;;;;;;5049480;28;20444;-80
2022/03/09 06:00:50;;;;;;;11.48;8.80;;;;;;;;;;5051149;28;20102;-80
2022/03/09 06:03:16;;;;;;;10.85;8.90;;;;;;;;;;5066652;28;20060;-80
2022/03/09 06:05:45;;;;;;;10.20;8.57;;;;;;;;;;5043785;28;20115;-79
2022/03/09 06:08:13;;;;;;;11.65;8.40;;;;;;;;;;5041269;28;20048;-80
2022/03/09 06:10:39;;;;;;;12.23;8.85;;;;;;;;;;5066104;28;20420;-80
2022/03/09 06:13:05;;;;;;;10.60;8.98;;;;;;;;;;5047412;28;20048;-80
2022/03/09 06:15:31;;;;;;;11.68;8.50;;;;;;;;;;5064761;28;20393;-79
2022/03/09 06:17:57;;;;;;;12.07;8.80;;;;;;;;;;5067158;28;20048;-80
2022/03/09 06:20:25;;;;;;;10.50;9.27;;;;;;;;;;5066600;28;20135;-79
2022/03/09 06:22:51;;;;;;;12.45;9.10;;;;;;;;;;5055649;28;20051;-80
2022/03/09 06:25:18;;;;;;;11.80;8.82;;;;;;;;;;5052766;28;20063;-80
2022/03/09 06:27:45;;;;;;;12.00;9.45;;;;;;;;;;5046026;28;20040;-80
2022/03/09 06:30:11;;;;;;;11.23;8.65;;;;;;;;;;5053569;28;20093;-80
2022/03/09 06:32:38;;;;;;;9.80;8.57;;;;;;;;;;5054037;28;20048;-80
2022/03/09 06:35:05;;;;;;;11.10;8.98;;;;;;;;;;5068500;28;20037;-79
2022/03/09 06:37:31;;;;;;;10.57;8.80;;;;;;;;;;5058666;28;20164;-80
2022/03/09 06:39:57;;;;;;;10.82;8.23;;;;;;;;;;5048474;28;20676;-80
2022/03/09 06:42:24;;;;;;;10.35;8.90;;;;;;;;;;5046247;28;20052;-79
2022/03/09 06:44:50;;;;;;;10.68;8.88;;;;;;;;;;5069951;28;20114;-80
2022/03/09 06:47:16;;;;;;;10.50;8.80;;;;;;;;;;5043811;28;20063;-80
2022/03/09 06:49:42;;;;;;;10.13;8.10;;;;;;;;;;5068355;28;20392;-80
2022/03/09 06:52:08;;;;;;;11.05;8.90;;;;;;;;;;5070730;28;20028;-81
2022/03/09 06:54:34;;;;;;;12.55;9.05;;;;;;;;;;5068728;28;20048;-88
2022/03/09 06:57:00;;;;;;;10.50;8.43;;;;;;;;;;5053024;28;20209;-80
2022/03/09 06:59:29;;;;;;;9.77;8.15;;;;;;;;;;5071531;28;20036;-80
2022/03/09 07:01:58;;;;;;;10.88;8.93;;;;;;;;;;5065015;28;20044;-80
2022/03/09 07:04:27;;;;;;;11.27;8.68;;;;;;;;;;5070351;28;20067;-80
2022/03/09 07:06:53;;;;;;;10.02;8.55;;;;;;;;;;5051542;28;20098;-80
2022/03/09 07:09:19;;;;;;;11.95;8.73;;;;;;;;;;5052239;28;20052;-80
2022/03/09 07:11:45;;;;;;;11.50;8.70;;;;;;;;;;5052057;28;20076;-80
2022/03/09 07:14:15;;;;;;;11.30;8.80;;;;;;;;;;5049389;28;20041;-81
2022/03/09 07:16:41;;;;;;;12.57;8.90;;;;;;;;;;5052549;28;20097;-80
2022/03/09 07:19:10;;;;;;;9.40;7.97;;;;;;;;;;5071021;28;20160;-80
2022/03/09 07:21:39;;;;;;;9.85;8.00;;;;;;;;;;5051348;28;20084;-80
2022/03/09 07:24:06;;;;;;;11.25;9.05;;;;;;;;;;5050359;28;20086;-80
2022/03/09 07:26:33;;;;;;;10.25;8.65;;;;;;;;;;5053429;28;20060;-80
2022/03/09 07:28:59;;;;;;;11.02;8.90;;;;;;;;;;5070105;28;20097;-80
2022/03/09 07:31:25;;;;;;;11.00;8.85;;;;;;;;;;5051574;28;20354;-80
2022/03/09 07:33:51;;;;;;;9.35;8.07;;;;;;;;;;5070343;28;20119;-80
2022/03/09 07:36:17;;;;;;;9.70;7.70;;;;;;;;;;5064280;28;20073;-81
2022/03/09 07:38:43;;;;;;;9.55;8.40;;;;;;;;;;5052006;28;20080;-80
2022/03/09 07:41:09;;;;;;;10.52;8.35;;;;;;;;;;5070807;28;20040;-80
2022/03/09 07:43:35;;;;;;;10.32;8.57;;;;;;;;;;5067328;28;20048;-80
2022/03/09 07:46:01;;;;;;;10.43;8.20;;;;;;;;;;5052959;28;20040;-80
2022/03/09 07:48:28;;;;;;;9.55;7.90;;;;;;;;;;5052948;28;20067;-81
2022/03/09 07:50:54;;;;;;;10.35;8.35;;;;;;;;;;5070782;28;20082;-80
2022/03/09 07:53:20;;;;;;;10.40;8.73;;;;;;;;;;5072606;28;20048;-82
2022/03/09 07:55:46;;;;;;;9.95;8.20;;;;;;;;;;5072740;28;20093;-83
2022/03/09 07:58:12;;;;;;;11.98;8.57;;;;;;;;;;5070417;28;20489;-84
2022/03/09 08:00:38;;;;;;;10.52;8.10;;;;;;;;;;5055347;28;20064;-83
2022/03/09 08:03:04;;;;;;;9.75;7.57;;;;;;;;;;5052613;28;20109;-82
2022/03/09 08:05:30;;;;;;;11.65;8.25;;;;;;;;;;5054726;28;20131;-82
2022/03/09 08:07:59;;;;;;;9.50;8.25;;;;;;;;;;5051660;28;20045;-83
2022/03/09 08:10:25;;;;;;;9.52;7.97;;;;;;;;;;5068244;28;20051;-83
2022/03/09 08:12:51;;;;;;;11.25;8.70;;;;;;;;;;5071196;28;20032;-83
2022/03/09 08:15:17;;;;;;;9.65;8.30;;;;;;;;;;5053736;28;20480;-83
2022/03/09 08:17:43;;;;;;;9.77;7.93;;;;;;;;;;5072208;28;20094;-83
2022/03/09 08:20:09;;;;;;;9.70;8.23;;;;;;;;;;5054598;28;20093;-84
2022/03/09 08:22:36;;;;;;;12.73;8.60;;;;;;;;;;5054697;28;20051;-84
2022/03/09 08:25:02;;;;;;;9.88;8.48;;;;;;;;;;5054523;28;20043;-83
2022/03/09 08:27:28;;;;;;;11.68;8.15;;;;;;;;;;5071139;28;20492;-83
2022/03/09 08:29:54;;;;;;;10.02;8.13;;;;;;;;;;5068502;28;20147;-83
2022/03/09 08:32:21;;;;;;;9.15;7.55;;;;;;;;;;5048788;28;20131;-83
2022/03/09 08:34:48;;;;;;;9.52;8.30;;;;;;;;;;5049303;28;20110;-83
2022/03/09 08:37:17;;;;;;;9.43;8.10;;;;;;;;;;5054823;28;20115;-84
2022/03/09 08:39:45;;;;;;;9.82;8.07;;;;;;;;;;5053760;28;20135;-84
2022/03/09 08:42:11;;;;;;;9.63;8.23;;;;;;;;;;5054875;28;20051;-84
2022/03/09 08:44:39;;;;;;;10.73;8.55;;;;;;;;;;5052630;28;20507;-83
2022/03/09 08:47:05;;;;;;;10.60;8.65;;;;;;;;;;5052765;28;20048;-83
2022/03/09 08:49:33;;;;;;;11.07;9.00;;;;;;;;;;5053960;28;20048;-83
2022/03/09 08:51:59;;;;;;;11.02;8.18;;;;;;;;;;5056000;28;20143;-83
2022/03/09 08:54:25;;;;;;;12.30;9.02;;;;;;;;;;5049359;28;20041;-83
2022/03/09 08:56:51;;;;;;;11.20;8.70;;;;;;;;;;5055169;28;20130;-82
2022/03/09 08:59:20;;;;;;;9.85;8.40;;;;;;;;;;5052805;28;20044;-83
2022/03/09 09:01:46;;;;;;;10.98;9.15;;;;;;;;;;5051529;28;20132;-84
2022/03/09 09:04:14;;;;;;;13.15;8.93;;;;;;;;;;5052651;28;20044;-84
2022/03/09 09:06:40;;;;;;;13.10;9.50;;;;;;;;;;5071962;28;20110;-84
2022/03/09 09:09:06;;;;;;;11.57;9.02;;;;;;;;;;5069926;28;20039;-83
2022/03/09 09:11:32;;;;;;;11.25;8.77;;;;;;;;;;5071486;28;20488;-83
2022/03/09 09:13:58;;;;;;;11.48;9.23;;;;;;;;;;5051165;28;20036;-83
2022/03/09 09:16:24;;;;;;;10.18;8.90;;;;;;;;;;5051959;28;20514;-84
2022/03/09 09:18:50;;;;;;;12.15;9.70;;;;;;;;;;5048003;28;20121;-84
2022/03/09 09:21:16;;;;;;;13.50;9.48;;;;;;;;;;5051987;28;20057;-85
2022/03/09 09:23:42;;;;;;;12.75;9.75;;;;;;;;;;5054257;28;20203;-84
2022/03/09 09:26:08;;;;;;;11.25;9.15;;;;;;;;;;5071326;28;20385;-84
2022/03/09 09:28:35;;;;;;;12.23;9.75;;;;;;;;;;5050281;28;20512;-83
2022/03/09 09:31:01;;;;;;;11.60;9.43;;;;;;;;;;5050746;28;20389;-83
2022/03/09 09:33:27;;;;;;;11.13;9.30;;;;;;;;;;5053082;28;20051;-84
2022/03/09 09:35:53;;;;;;;11.43;9.52;;;;;;;;;;5052610;28;20096;-84
2022/03/09 09:38:20;;;;;;;10.82;9.27;;;;;;;;;;5054242;28;20045;-84
2022/03/09 09:40:46;;;;;;;11.52;9.48;;;;;;;;;;5047020;28;20090;-83
2022/03/09 09:43:14;;;;;;;11.20;8.98;;;;;;;;;;5067592;28;20055;-83
2022/03/09 09:45:40;;;;;;;11.90;9.52;;;;;;;;;;5053256;28;20045;-83
2022/03/09 09:48:07;;;;;;;11.85;8.48;;;;;;;;;;5054100;28;20185;-84
2022/03/09 09:50:34;;;;;;;10.30;8.40;;;;;;;;;;5052744;28;20496;-83
2022/03/09 09:53:03;;;;;;;10.10;8.45;;;;;;;;;;5049949;28;20040;-83
2022/03/09 09:55:29;;;;;;;10.82;8.93;;;;;;;;;;5053373;28;20044;-84
2022/03/09 09:57:56;;;;;;;10.95;8.98;;;;;;;;;;5053685;28;20127;-83
2022/03/09 10:00:22;;;;;;;11.25;8.60;;;;;;;;;;5051975;28;20049;-84
2022/03/09 10:02:48;;;;;;;9.57;7.88;;;;;;;;;;5051194;28;20079;-84
2022/03/09 10:05:15;;;;;;;9.48;7.15;;;;;;;;;;5052224;28;20095;-84
2022/03/09 10:08:00;;;;;;;11.50;8.57;;;;;;;;;;5049728;28;20517;-84
2022/03/09 10:10:26;;;;;;;10.55;8.50;;;;;;;;;;5051122;28;20056;-84
2022/03/09 10:12:52;;;;;;;9.55;7.78;;;;;;;;;;5051691;28;20045;-84
2022/03/09 10:15:18;;;;;;;9.50;7.68;;;;;;;;;;5070667;28;20055;-84
2022/03/09 10:17:44;;;;;;;8.48;7.57;;;;;;;;;;5069564;28;20477;-84
2022/03/09 10:20:11;;;;;;;10.55;7.82;;;;;;;;;;5051123;28;20048;-84
2022/03/09 10:22:41;;;;;;;10.48;7.57;;;;;;;;;;5052229;28;20124;-84
2022/03/09 10:25:10;;;;;;;7.90;7.10;;;;;;;;;;5051469;28;20079;-84
2022/03/09 10:27:39;;;;;;;8.80;7.50;;;;;;;;;;5070849;28;20381;-84
2022/03/09 10:30:07;;;;;;;9.48;7.55;;;;;;;;;;5067683;28;20050;-84
2022/03/09 10:32:42;;;;;;;8.75;7.10;;;;;;;;;;5047591;28;20093;-84
2022/03/09 10:35:09;;;;;;;9.98;7.57;;;;;;;;;;5053182;28;20054;-84
2022/03/09 10:37:39;;;;;;;8.60;7.70;;;;;;;;;;5038425;28;20102;-84
2022/03/09 10:40:09;;;;;;;10.27;8.00;;;;;;;;;;5052078;28;20072;-84
2022/03/09 10:42:36;;;;;;;9.68;7.63;;;;;;;;;;5069077;28;20455;-84
2022/03/09 10:45:07;;;;;;;9.90;7.68;;;;;;;;;;5068370;28;20058;-83
2022/03/09 10:47:33;;;;;;;10.35;7.22;;;;;;;;;;5069457;28;20452;-84
2022/03/09 10:50:17;;;;;;;7.60;6.70;;;;;;;;;;5069543;28;20040;-84
2022/03/09 10:52:43;;;;;;;9.40;7.50;;;;;;;;;;5068167;28;20442;-84
2022/03/09 10:55:21;;;;;;;8.50;7.38;;;;;;;;;;5045420;28;20040;-84
2022/03/09 10:57:47;;;;;;;10.45;7.28;;;;;;;;;;5053299;28;20060;-84
2022/03/09 11:00:13;;;;;;;8.77;7.30;;;;;;;;;;5067974;28;20055;-84
2022/03/09 11:02:51;;;;;;;8.85;7.22;;;;;;;;;;5051243;28;20557;-84
2022/03/09 11:05:17;;;;;;;8.65;7.05;;;;;;;;;;5068883;28;20086;-85
2022/03/09 11:07:44;;;;;;;8.05;7.25;;;;;;;;;;5070422;28;20438;-84
2022/03/09 11:10:12;;;;;;;7.90;6.88;;;;;;;;;;5056037;28;20048;-85
2022/03/09 11:12:38;;;;;;;10.25;7.55;;;;;;;;;;5049939;28;20056;-84
2022/03/09 11:15:05;;;;;;;8.05;7.18;;;;;;;;;;5052570;28;20149;-84
2022/03/09 11:17:31;;;;;;;7.75;6.85;;;;;;;;;;5063583;28;20087;-84
2022/03/09 11:19:57;;;;;;;8.20;7.28;;;;;;;;;;5053362;28;20048;-84
2022/03/09 11:22:23;;;;;;;8.55;7.30;;;;;;;;;;5068943;28;20044;-84
2022/03/09 11:24:49;;;;;;;9.30;7.40;;;;;;;;;;5068216;28;20036;-84
2022/03/09 11:27:16;;;;;;;8.30;7.45;;;;;;;;;;5071073;28;20407;-84
2022/03/09 11:29:42;;;;;;;10.07;7.25;;;;;;;;;;5068904;28;20141;-84
2022/03/09 11:32:10;;;;;;;8.48;7.45;;;;;;;;;;5062445;28;20061;-85
2022/03/09 11:34:47;;;;;;;9.25;7.90;;;;;;;;;;5053483;28;20574;-83
2022/03/09 11:37:33;;;;;;;9.02;7.50;;;;;;;;;;5066718;28;20041;-84
2022/03/09 11:40:02;;;;;;;9.15;7.53;;;;;;;;;;5063899;28;20047;-84
2022/03/09 11:42:31;;;;;;;10.80;7.88;;;;;;;;;;5067929;28;20044;-84
2022/03/09 11:45:16;;;;;;;9.93;8.13;;;;;;;;;;5067480;28;20090;-83
2022/03/09 11:47:58;;;;;;;9.32;8.20;;;;;;;;;;5041413;28;20059;-83
2022/03/09 11:50:25;;;;;;;10.88;7.85;;;;;;;;;;5067622;28;20052;-83
2022/03/09 11:53:20;;;;;;;10.13;8.55;;;;;;;;;;5047963;28;20068;-82
2022/03/09 11:55:49;;;;;;;12.27;8.52;;;;;;;;;;5044550;28;20053;-83
2022/03/09 11:58:15;;;;;;;10.82;8.35;;;;;;;;;;5063065;28;20040;-83
2022/03/09 12:01:01;;;;;;;10.55;9.00;;;;;;;;;;5056419;28;20162;-83
2022/03/09 12:03:40;;;;;;;9.52;8.20;;;;;;;;;;5056399;28;20052;-82
2022/03/09 12:06:26;;;;;;;12.35;8.75;;;;;;;;;;5078273;28;20515;-84
2022/03/09 12:08:52;;;;;;;9.52;8.52;;;;;;;;;;5051276;28;20037;-83
2022/03/09 12:11:21;;;;;;;9.65;7.97;;;;;;;;;;5058058;28;20145;-83
2022/03/09 12:13:47;;;;;;;10.38;9.07;;;;;;;;;;5069566;28;20447;-83
2022/03/09 12:16:17;;;;;;;11.48;8.70;;;;;;;;;;5065097;28;20110;-83
2022/03/09 12:18:43;;;;;;;9.85;8.45;;;;;;;;;;5050026;28;20040;-83
2022/03/09 12:21:10;;;;;;;10.45;9.30;;;;;;;;;;5064587;28;20044;-83
2022/03/09 12:23:56;;;;;;;10.70;9.05;;;;;;;;;;5067734;28;20055;-82
2022/03/09 12:26:41;;;;;;;10.00;8.02;;;;;;;;;;5065467;28;20127;-82
2022/03/09 12:29:23;;;;;;;11.90;9.38;;;;;;;;;;5068055;28;20105;-84
2022/03/09 12:32:02;;;;;;;11.80;9.50;;;;;;;;;;5065200;28;20044;-83
2022/03/09 12:34:32;;;;;;;10.90;9.13;;;;;;;;;;5069725;28;20128;-82
2022/03/09 12:37:01;;;;;;;10.55;9.30;;;;;;;;;;5053225;28;20043;-82
2022/03/09 12:39:27;;;;;;;11.13;9.63;;;;;;;;;;5071256;28;20130;-83
2022/03/09 12:41:54;;;;;;;12.27;9.65;;;;;;;;;;5073825;28;20047;-83
2022/03/09 12:44:23;;;;;;;12.25;10.00;;;;;;;;;;5069034;28;20041;-82
2022/03/09 12:46:50;;;;;;;12.18;10.15;;;;;;;;;;5070518;28;20051;-82
2022/03/09 12:49:17;;;;;;;11.55;10.30;;;;;;;;;;5071486;28;20036;-82
2022/03/09 12:51:51;;;;;;;11.52;9.85;;;;;;;;;;5069335;28;20510;-82
2022/03/09 12:54:35;;;;;;;12.55;10.45;;;;;;;;;;5067491;28;20068;-83
2022/03/09 12:57:08;;;;;;;11.00;9.63;;;;;;;;;;5052788;28;20052;-83
2022/03/09 12:59:34;;;;;;;11.68;9.85;;;;;;;;;;5068469;28;20117;-83
2022/03/09 13:02:00;;;;;;;10.55;9.45;;;;;;;;;;5067930;28;20101;-81
2022/03/09 13:04:26;;;;;;;12.55;9.85;;;;;;;;;;5071317;28;20044;-81
2022/03/09 13:06:52;;;;;;;11.48;9.88;;;;;;;;;;5068559;28;20074;-81
2022/03/09 13:09:22;;;;;;;13.43;10.93;;;;;;;;;;5071667;28;20086;-81
2022/03/09 13:11:52;;;;;;;12.45;10.90;;;;;;;;;;5049537;28;20051;-82
2022/03/09 13:14:19;;;;;;;11.55;9.82;;;;;;;;;;5070717;28;20526;-82
2022/03/09 13:16:46;;;;;;;12.50;10.05;;;;;;;;;;5066392;28;20051;-82
2022/03/09 13:19:13;;;;;;;11.88;9.77;;;;;;;;;;5053788;28;20393;-83
2022/03/09 13:21:39;;;;;;;11.52;10.02;;;;;;;;;;5070047;28;20075;-82
2022/03/09 13:24:07;;;;;;;11.50;10.30;;;;;;;;;;5053737;28;20044;-82
2022/03/09 13:26:40;;;;;;;12.75;10.20;;;;;;;;;;5071317;28;20123;-81
2022/03/09 13:29:14;;;;;;;12.85;10.82;;;;;;;;;;5068316;28;20171;-81
2022/03/09 13:31:57;;;;;;;12.27;10.27;;;;;;;;;;5071751;28;20400;-82
2022/03/09 13:34:29;;;;;;;14.27;9.75;;;;;;;;;;5069762;28;20037;-82
2022/03/09 13:37:05;;;;;;;11.85;10.65;;;;;;;;;;5067151;28;20047;-82
2022/03/09 13:39:39;;;;;;;11.50;10.23;;;;;;;;;;5071690;28;20048;-82
2022/03/09 13:42:19;;;;;;;10.60;9.57;;;;;;;;;;5071164;28;20579;-82
2022/03/09 13:45:02;;;;;;;11.38;10.18;;;;;;;;;;5053437;28;20040;-82
2022/03/09 13:47:28;;;;;;;12.98;9.70;;;;;;;;;;5050365;28;20047;-82
2022/03/09 13:49:57;;;;;;;12.18;10.32;;;;;;;;;;5052043;28;20041;-83
2022/03/09 13:52:23;;;;;;;10.38;9.32;;;;;;;;;;5053000;28;20051;-82
2022/03/09 13:54:50;;;;;;;11.75;10.30;;;;;;;;;;5054496;28;20044;-83
2022/03/09 13:57:29;;;;;;;10.40;9.30;;;;;;;;;;5047918;28;20127;-82
2022/03/09 13:59:56;;;;;;;11.00;9.90;;;;;;;;;;5052673;28;20041;-83
2022/03/09 14:02:25;;;;;;;11.50;10.27;;;;;;;;;;5068185;28;20040;-83
2022/03/09 14:04:51;;;;;;;11.45;9.75;;;;;;;;;;5053079;28;20044;-83
2022/03/09 14:07:18;;;;;;;12.55;10.43;;;;;;;;;;5046045;28;20056;-83
2022/03/09 14:10:03;;;;;;;10.55;9.55;;;;;;;;;;5066481;28;20500;-83
2022/03/09 14:12:37;;;;;;;10.80;9.77;;;;;;;;;;5052381;28;20048;-83
2022/03/09 14:15:04;;;;;;;10.45;9.45;;;;;;;;;;5048775;28;20051;-83
2022/03/09 14:17:30;;;;;;;11.15;9.70;;;;;;;;;;5045077;28;20481;-82
2022/03/09 14:19:56;;;;;;;10.63;9.60;;;;;;;;;;5053556;28;20040;-82
2022/03/09 14:22:22;;;;;;;10.48;9.48;;;;;;;;;;5050344;28;20040;-82
2022/03/09 14:24:48;;;;;;;10.40;9.40;;;;;;;;;;5052061;28;20392;-83
2022/03/09 14:27:14;;;;;;;10.48;9.48;;;;;;;;;;5051796;28;20041;-82
2022/03/09 14:29:42;;;;;;;9.73;8.82;;;;;;;;;;5069378;28;20037;-84
2022/03/09 14:32:08;;;;;;;10.73;9.73;;;;;;;;;;5068411;28;20136;-84
2022/03/09 14:34:34;;;;;;;10.27;9.27;;;;;;;;;;5070444;28;20048;-84
2022/03/09 14:37:00;;;;;;;10.35;9.35;;;;;;;;;;5068335;28;20067;-84
2022/03/09 14:39:27;;;;;;;9.82;8.93;;;;;;;;;;5049938;28;20044;-84
2022/03/09 14:41:53;;;;;;;9.50;8.50;;;;;;;;;;5050700;28;20044;-83